createdAt,value
2022-11-16T00:02:07.770Z,94910.88
2022-11-16T00:04:34.310Z,94899.13
2022-11-16T00:07:02.705Z,94908.69
2022-11-16T00:09:31.855Z,94906.19
2022-11-16T00:12:06.590Z,94906.31
2022-11-16T00:14:35.237Z,94902.41
2022-11-16T00:17:02.170Z,94897.06
2022-11-16T00:19:29.136Z,94893.50
2022-11-16T00:21:56.167Z,94891.38
2022-11-16T00:24:23.535Z,94881.13
2022-11-16T00:26:51.314Z,94882.28
2022-11-16T00:29:23.561Z,94882.44
2022-11-16T00:31:51.142Z,94889.16
2022-11-16T00:34:18.331Z,94876.44
2022-11-16T00:36:45.460Z,94878.03
2022-11-16T00:39:14.298Z,94881.91
2022-11-16T00:41:41.626Z,94880.91
2022-11-16T00:44:08.597Z,94884.34
2022-11-16T00:46:35.290Z,94893.06
2022-11-16T00:49:01.675Z,94891.38
2022-11-16T00:51:28.028Z,94886.09
2022-11-16T00:53:54.957Z,94884.50
2022-11-16T00:56:21.303Z,94888.66
2022-11-16T00:58:47.679Z,94882.44
2022-11-16T01:01:14.925Z,94879.00
2022-11-16T01:03:41.397Z,94884.84
2022-11-16T01:06:10.368Z,94870.19
2022-11-16T01:08:38.560Z,94868.44
2022-11-16T01:11:24.038Z,94864.19
2022-11-16T01:13:51.321Z,94864.69
2022-11-16T01:16:19.789Z,94869.19
2022-11-16T01:18:50.851Z,94877.59
2022-11-16T01:21:18.333Z,94876.59
2022-11-16T01:23:44.981Z,94884.19
2022-11-16T01:26:11.376Z,94875.69
2022-11-16T01:28:38.046Z,94890.47
2022-11-16T01:31:04.577Z,94893.59
2022-11-16T01:33:31.058Z,94902.50
2022-11-16T01:35:57.784Z,94906.47
2022-11-16T01:38:29.364Z,94915.19
2022-11-16T01:40:56.199Z,94912.47
2022-11-16T01:43:25.204Z,94903.56
2022-11-16T01:45:52.231Z,94899.28
2022-11-16T01:48:28.030Z,94897.81
2022-11-16T01:50:56.194Z,94896.06
2022-11-16T01:53:23.279Z,94895.31
2022-11-16T01:55:50.167Z,94884.50
2022-11-16T01:58:22.933Z,94884.91
2022-11-16T02:00:49.802Z,94888.22
2022-11-16T02:03:18.621Z,94878.47
2022-11-16T02:06:01.207Z,94881.78
2022-11-16T02:09:06.908Z,94877.44
2022-11-16T02:11:36.506Z,94869.38
2022-11-16T02:14:17.919Z,94865.88
2022-11-16T02:17:01.979Z,94875.59
2022-11-16T02:20:10.309Z,94860.50
2022-11-16T02:22:54.934Z,94861.75
2022-11-16T02:25:46.073Z,94863.75
2022-11-16T02:28:34.594Z,94862.66
2022-11-16T02:31:05.802Z,94868.28
2022-11-16T02:33:37.805Z,94861.03
2022-11-16T02:36:09.242Z,94856.56
2022-11-16T02:38:40.803Z,94844.94
2022-11-16T02:41:14.509Z,94847.25
2022-11-16T02:43:48.249Z,94846.75
2022-11-16T02:46:38.787Z,94841.66
2022-11-16T02:49:11.482Z,94842.00
2022-11-16T02:51:40.385Z,94843.00
2022-11-16T02:54:14.783Z,94848.84
2022-11-16T02:57:13.973Z,94839.34
2022-11-16T02:59:44.695Z,94844.19
2022-11-16T03:02:26.576Z,94847.63
2022-11-16T03:05:31.929Z,94845.63
2022-11-16T03:08:09.222Z,94838.81
2022-11-16T03:10:58.522Z,94848.78
2022-11-16T03:13:30.448Z,94852.00
2022-11-16T03:15:57.856Z,94851.63
2022-11-16T03:18:28.934Z,94859.84
2022-11-16T03:21:05.910Z,94844.84
2022-11-16T03:23:32.434Z,94852.81
2022-11-16T03:26:05.173Z,94858.78
2022-11-16T03:28:39.303Z,94858.34
2022-11-16T03:31:15.075Z,94869.22
2022-11-16T03:33:48.555Z,94888.81
2022-11-16T03:36:42.577Z,94883.97
2022-11-16T03:39:17.111Z,94890.50
2022-11-16T03:41:46.149Z,94885.88
2022-11-16T03:44:14.279Z,94895.41
2022-11-16T03:46:45.842Z,94912.63
2022-11-16T03:49:12.367Z,94919.50
2022-11-16T03:51:38.778Z,94912.31
2022-11-16T03:54:05.870Z,94908.44
2022-11-16T03:56:32.342Z,94907.22
2022-11-16T03:58:58.707Z,94920.69
2022-11-16T04:01:25.463Z,94911.75
2022-11-16T04:03:51.797Z,94910.06
2022-11-16T04:06:37.397Z,94917.25
2022-11-16T04:09:22.470Z,94906.31
2022-11-16T04:12:08.250Z,94907.72
2022-11-16T04:14:53.365Z,94908.75
2022-11-16T04:17:42.602Z,94911.47
2022-11-16T04:20:29.873Z,94904.56
2022-11-16T04:23:30.111Z,94899.50
2022-11-16T04:25:57.305Z,94900.75
2022-11-16T04:28:31.331Z,94909.34
2022-11-16T04:31:19.737Z,94896.66
2022-11-16T04:34:05.091Z,94895.34
2022-11-16T04:36:50.278Z,94900.53
2022-11-16T04:39:16.505Z,94895.63
2022-11-16T04:42:01.706Z,94887.50
2022-11-16T04:44:50.616Z,94884.28
2022-11-16T04:47:17.333Z,94856.03
2022-11-16T04:49:43.724Z,94855.56
2022-11-16T04:52:10.349Z,94861.66
2022-11-16T04:54:37.286Z,94848.38
2022-11-16T04:57:03.662Z,94854.69
2022-11-16T04:59:29.966Z,94847.34
2022-11-16T05:02:08.737Z,94842.94
2022-11-16T05:04:40.960Z,94857.28
2022-11-16T05:07:10.910Z,94877.94
2022-11-16T05:09:43.321Z,94883.81
2022-11-16T05:12:11.287Z,94881.84
2022-11-16T05:14:37.609Z,94882.88
2022-11-16T05:17:04.475Z,94888.00
2022-11-16T05:19:49.408Z,94875.97
2022-11-16T05:22:15.794Z,94874.06
2022-11-16T05:24:42.142Z,94877.03
2022-11-16T05:27:12.770Z,94873.72
2022-11-16T05:29:41.054Z,94869.25
2022-11-16T05:32:08.123Z,94863.50
2022-11-16T05:34:34.561Z,94863.97
2022-11-16T05:37:00.966Z,94857.22
2022-11-16T05:39:28.007Z,94865.56
2022-11-16T05:41:54.686Z,94867.47
2022-11-16T05:44:21.056Z,94865.81
2022-11-16T05:46:48.061Z,94865.72
2022-11-16T05:49:15.097Z,94865.13
2022-11-16T05:51:43.762Z,94857.38
2022-11-16T05:54:16.335Z,94867.78
2022-11-16T05:56:42.902Z,94865.94
2022-11-16T05:59:15.195Z,94857.63
2022-11-16T06:01:43.143Z,94860.66
2022-11-16T06:04:09.912Z,94866.06
2022-11-16T06:06:36.525Z,94868.34
2022-11-16T06:09:03.663Z,94863.66
2022-11-16T06:11:35.501Z,94867.53
2022-11-16T06:14:02.525Z,94867.09
2022-11-16T06:16:29.367Z,94867.91
2022-11-16T06:18:55.719Z,94873.63
2022-11-16T06:21:22.071Z,94872.97
2022-11-16T06:23:48.951Z,94866.00
2022-11-16T06:26:15.334Z,94858.94
2022-11-16T06:28:41.662Z,94866.69
2022-11-16T06:31:08.351Z,94869.91
2022-11-16T06:33:34.735Z,94871.97
2022-11-16T06:36:01.073Z,94881.53
2022-11-16T06:38:28.280Z,94870.72
2022-11-16T06:40:57.672Z,94879.47
2022-11-16T06:43:25.706Z,94871.19
2022-11-16T06:45:57.648Z,94873.59
2022-11-16T06:48:24.021Z,94875.00
2022-11-16T06:50:52.524Z,94878.66
2022-11-16T06:53:22.461Z,94874.91
2022-11-16T06:55:53.070Z,94883.78
2022-11-16T06:58:19.434Z,94882.97
2022-11-16T07:00:45.756Z,94888.59
2022-11-16T07:03:12.534Z,94877.16
2022-11-16T07:05:41.745Z,94882.78
2022-11-16T07:08:08.460Z,94878.47
2022-11-16T07:10:35.345Z,94884.41
2022-11-16T07:13:03.330Z,94882.34
2022-11-16T07:15:30.033Z,94897.72
2022-11-16T07:17:56.895Z,94901.75
2022-11-16T07:20:23.915Z,94896.00
2022-11-16T07:22:50.758Z,94912.84
2022-11-16T07:25:17.073Z,94910.31
2022-11-16T07:27:43.421Z,94929.34
2022-11-16T07:30:10.215Z,94912.78
2022-11-16T07:32:39.683Z,94919.09
2022-11-16T07:35:06.942Z,94915.97
2022-11-16T07:37:33.334Z,94922.84
2022-11-16T07:39:59.652Z,94929.66
2022-11-16T07:42:26.642Z,94926.09
2022-11-16T07:44:53.037Z,94925.03
2022-11-16T07:47:19.348Z,94926.66
2022-11-16T07:49:45.677Z,94933.34
2022-11-16T07:52:12.024Z,94930.94
2022-11-16T07:54:38.433Z,94935.78
2022-11-16T07:57:05.138Z,94942.66
2022-11-16T07:59:31.488Z,94944.91
2022-11-16T08:01:59.261Z,94932.50
2022-11-16T08:04:26.180Z,94928.13
2022-11-16T08:06:52.677Z,94937.94
2022-11-16T08:09:19.455Z,94933.00
2022-11-16T08:11:47.018Z,94931.38
2022-11-16T08:14:13.853Z,94940.03
2022-11-16T08:16:40.800Z,94935.56
2022-11-16T08:19:07.114Z,94933.22
2022-11-16T08:21:33.511Z,94942.56
2022-11-16T08:23:59.894Z,94945.09
2022-11-16T08:26:27.442Z,94935.78
2022-11-16T08:28:55.561Z,94946.69
2022-11-16T08:31:25.439Z,94939.44
2022-11-16T08:33:52.863Z,94950.63
2022-11-16T08:36:19.634Z,94950.63
2022-11-16T08:38:47.537Z,94949.22
2022-11-16T08:41:14.843Z,94954.28
2022-11-16T08:43:42.801Z,94952.94
2022-11-16T08:46:10.573Z,94961.22
2022-11-16T08:48:38.130Z,94959.59
2022-11-16T08:51:22.542Z,94951.44
2022-11-16T08:53:49.945Z,94958.47
2022-11-16T08:56:17.913Z,94955.44
2022-11-16T08:58:46.653Z,94961.41
2022-11-16T09:01:18.617Z,94958.19
2022-11-16T09:03:46.563Z,94956.03
2022-11-16T09:06:13.720Z,94964.94
2022-11-16T09:08:42.574Z,94953.03
2022-11-16T09:11:18.037Z,94961.63
2022-11-16T09:13:46.025Z,94952.00
2022-11-16T09:16:15.710Z,94957.53
2022-11-16T09:18:48.649Z,94961.00
2022-11-16T09:21:22.377Z,94965.16
2022-11-16T09:23:49.856Z,94966.06
2022-11-16T09:26:22.833Z,94961.84
2022-11-16T09:29:07.745Z,94975.25
2022-11-16T09:31:34.698Z,94974.25
2022-11-16T09:34:01.393Z,94987.59
2022-11-16T09:36:28.871Z,94974.09
2022-11-16T09:39:23.645Z,94978.75
2022-11-16T09:42:02.001Z,94975.09
2022-11-16T09:45:14.638Z,94981.06
2022-11-16T09:47:49.386Z,94976.38
2022-11-16T09:50:28.853Z,94981.06
2022-11-16T09:52:58.014Z,94974.28
2022-11-16T09:55:49.617Z,94972.56
2022-11-16T09:58:23.560Z,94975.19
2022-11-16T10:00:57.186Z,94979.72
2022-11-16T10:03:25.622Z,94975.38
2022-11-16T10:06:01.362Z,94973.75
2022-11-16T10:08:46.454Z,94979.22
2022-11-16T10:11:19.269Z,94975.28
2022-11-16T10:14:06.111Z,94975.75
2022-11-16T10:17:24.832Z,94972.81
2022-11-16T10:20:18.516Z,94973.25
2022-11-16T10:23:18.860Z,94975.72
2022-11-16T10:25:52.253Z,94973.63
2022-11-16T10:29:01.050Z,94966.50
2022-11-16T10:31:30.916Z,94959.13
2022-11-16T10:33:59.332Z,94956.91
2022-11-16T10:36:32.455Z,94956.84
2022-11-16T10:39:00.635Z,94949.09
2022-11-16T10:41:37.791Z,94952.28
2022-11-16T10:44:24.624Z,94954.19
2022-11-16T10:47:05.029Z,94942.78
2022-11-16T10:49:58.296Z,94947.56
2022-11-16T10:52:26.203Z,94943.22
2022-11-16T10:54:53.339Z,94948.66
2022-11-16T10:57:20.960Z,94949.09
2022-11-16T10:59:54.215Z,94939.88
2022-11-16T11:02:27.637Z,94935.53
2022-11-16T11:05:17.804Z,94933.91
2022-11-16T11:07:56.818Z,94933.81
2022-11-16T11:10:28.910Z,94934.44
2022-11-16T11:13:11.933Z,94936.03
2022-11-16T11:15:40.814Z,94932.78
2022-11-16T11:18:27.319Z,94929.63
2022-11-16T11:21:13.651Z,94932.28
2022-11-16T11:23:52.737Z,94927.53
2022-11-16T11:26:36.502Z,94928.94
2022-11-16T11:29:23.550Z,94934.56
2022-11-16T11:31:56.039Z,94927.28
2022-11-16T11:34:26.662Z,94928.25
2022-11-16T11:37:02.798Z,94924.59
2022-11-16T11:39:35.325Z,94927.38
2022-11-16T11:42:22.970Z,94926.28
2022-11-16T11:44:57.394Z,94923.63
2022-11-16T11:50:33.254Z,94937.50
2022-11-16T11:53:07.715Z,94926.59
2022-11-16T11:55:34.945Z,94925.09
2022-11-16T11:58:03.571Z,94929.78
2022-11-16T12:00:44.281Z,94923.28
2022-11-16T12:03:44.165Z,94922.38
2022-11-16T12:06:19.854Z,94917.16
2022-11-16T12:09:07.414Z,94912.56
2022-11-16T12:11:41.404Z,94911.19
2022-11-16T12:14:49.387Z,94914.28
2022-11-16T12:17:16.060Z,94924.66
2022-11-16T12:19:45.358Z,94901.34
2022-11-16T12:22:31.763Z,94913.94
2022-11-16T12:25:16.897Z,94896.94
2022-11-16T12:27:59.022Z,94908.97
2022-11-16T12:30:26.045Z,94910.91
2022-11-16T12:33:26.349Z,94892.81
2022-11-16T12:36:08.210Z,94899.84
2022-11-16T12:38:49.159Z,94904.03
2022-11-16T12:41:45.546Z,94893.25
2022-11-16T12:44:17.133Z,94893.63
2022-11-16T12:47:23.094Z,94898.38
2022-11-16T12:50:01.270Z,94893.56
2022-11-16T12:52:49.235Z,94894.91
2022-11-16T12:55:52.679Z,94892.19
2022-11-16T12:58:23.265Z,94886.50
2022-11-16T13:00:57.267Z,94887.47
2022-11-16T13:03:40.785Z,94888.25
2022-11-16T13:06:12.779Z,94882.22
2022-11-16T13:08:54.269Z,94888.38
2022-11-16T13:11:32.841Z,94892.56
2022-11-16T13:14:03.960Z,94880.69
2022-11-16T13:16:31.009Z,94878.38
2022-11-16T13:18:59.821Z,94878.47
2022-11-16T13:21:44.499Z,94885.94
2022-11-16T13:24:27.551Z,94882.84
2022-11-16T13:27:17.902Z,94881.78
2022-11-16T13:29:57.475Z,94873.03
2022-11-16T13:32:43.384Z,94870.25
2022-11-16T13:35:18.017Z,94865.13
2022-11-16T13:37:49.077Z,94863.97
2022-11-16T13:40:33.325Z,94869.28
2022-11-16T13:43:11.845Z,94875.50
2022-11-16T13:45:50.748Z,94875.56
2022-11-16T13:48:26.874Z,94878.38
2022-11-16T13:50:56.702Z,94863.16
2022-11-16T13:56:16.113Z,94866.38
2022-11-16T13:59:00.774Z,94853.91
2022-11-16T14:01:58.272Z,94848.44
2022-11-16T14:04:39.899Z,94851.38
2022-11-16T14:07:29.300Z,94846.94
2022-11-16T14:09:55.850Z,94851.72
2022-11-16T14:12:37.794Z,94853.66
2022-11-16T14:15:25.691Z,94843.84
2022-11-16T14:17:58.205Z,94845.00
2022-11-16T14:20:34.397Z,94841.38
2022-11-16T14:23:32.181Z,94839.19
2022-11-16T14:26:13.750Z,94832.22
2022-11-16T14:29:12.752Z,94835.31
2022-11-16T14:32:18.861Z,94828.19
2022-11-16T14:34:48.087Z,94832.38
2022-11-16T14:37:24.348Z,94831.56
2022-11-16T14:39:53.537Z,94819.09
2022-11-16T14:42:23.942Z,94817.91
2022-11-16T14:44:58.330Z,94817.84
2022-11-16T14:47:26.942Z,94811.19
2022-11-16T14:49:56.336Z,94821.28
2022-11-16T14:52:35.959Z,94822.44
2022-11-16T14:55:07.170Z,94831.22
2022-11-16T14:57:33.813Z,94826.53
2022-11-16T15:00:21.302Z,94828.53
2022-11-16T15:02:57.606Z,94834.53
2022-11-16T15:05:33.249Z,94830.81
2022-11-16T15:08:01.295Z,94820.84
2022-11-16T15:10:29.077Z,94817.22
2022-11-16T15:12:56.970Z,94826.44
2022-11-16T15:15:26.722Z,94826.66
2022-11-16T15:18:07.827Z,94818.69
2022-11-16T15:20:37.969Z,94811.00
2022-11-16T15:23:05.874Z,94810.84
2022-11-16T15:25:40.913Z,94814.00
2022-11-16T15:28:30.550Z,94816.41
2022-11-16T15:30:59.960Z,94814.25
2022-11-16T15:33:29.321Z,94817.53
2022-11-16T15:35:56.346Z,94810.13
2022-11-16T15:38:29.333Z,94823.72
2022-11-16T15:41:00.700Z,94812.63
2022-11-16T15:43:38.183Z,94819.00
2022-11-16T15:46:13.811Z,94813.25
2022-11-16T15:48:41.167Z,94805.13
2022-11-16T15:51:15.113Z,94806.19
2022-11-16T15:53:45.949Z,94812.97
2022-11-16T15:56:14.742Z,94810.09
2022-11-16T15:58:42.596Z,94806.41
2022-11-16T16:01:11.360Z,94804.56
2022-11-16T16:03:38.467Z,94807.41
2022-11-16T16:06:06.000Z,94818.66
2022-11-16T16:08:35.650Z,94816.59
2022-11-16T16:11:25.475Z,94818.22
2022-11-16T16:13:59.372Z,94808.78
2022-11-16T16:16:33.051Z,94826.56
2022-11-16T16:19:05.145Z,94805.22
2022-11-16T16:21:46.579Z,94815.75
2022-11-16T16:24:49.817Z,94810.63
2022-11-16T16:27:27.724Z,94810.34
2022-11-16T16:29:58.850Z,94812.34
2022-11-16T16:32:26.578Z,94810.81
2022-11-16T16:34:55.414Z,94816.69
2022-11-16T16:37:22.533Z,94814.22
2022-11-16T16:39:48.935Z,94830.28
2022-11-16T16:42:17.399Z,94818.63
2022-11-16T16:44:45.702Z,94808.53
2022-11-16T16:47:13.530Z,94810.59
2022-11-16T16:49:40.049Z,94810.31
2022-11-16T16:52:07.033Z,94817.75
2022-11-16T16:54:34.194Z,94799.91
2022-11-16T16:57:02.274Z,94800.78
2022-11-16T16:59:30.447Z,94806.81
2022-11-16T17:01:58.473Z,94803.97
2022-11-16T17:04:25.065Z,94797.97
2022-11-16T17:06:53.682Z,94789.94
2022-11-16T17:09:20.555Z,94797.94
2022-11-16T17:11:47.640Z,94793.03
2022-11-16T17:14:14.489Z,94801.41
2022-11-16T17:16:40.965Z,94795.00
2022-11-16T17:19:07.696Z,94799.50
2022-11-16T17:21:34.428Z,94804.13
2022-11-16T17:24:01.368Z,94802.13
2022-11-16T17:26:29.313Z,94796.88
2022-11-16T17:28:56.924Z,94796.47
2022-11-16T17:31:25.492Z,94789.19
2022-11-16T17:33:52.514Z,94797.31
2022-11-16T17:36:19.394Z,94790.47
2022-11-16T17:38:46.261Z,94785.69
2022-11-16T17:41:17.902Z,94781.88
2022-11-16T17:43:46.480Z,94771.00
2022-11-16T17:46:15.555Z,94771.19
2022-11-16T17:48:43.538Z,94776.03
2022-11-16T17:51:15.902Z,94778.06
2022-11-16T17:53:44.288Z,94781.09
2022-11-16T17:56:15.098Z,94778.47
2022-11-16T17:58:41.726Z,94778.28
2022-11-16T18:01:08.293Z,94785.81
2022-11-16T18:03:39.209Z,94782.22
2022-11-16T18:06:13.123Z,94786.66
2022-11-16T18:08:41.318Z,94780.59
2022-11-16T18:11:16.428Z,94780.63
2022-11-16T18:13:44.034Z,94788.91
2022-11-16T18:16:18.181Z,94789.09
2022-11-16T18:18:45.917Z,94782.06
2022-11-16T18:21:20.067Z,94779.81
2022-11-16T18:23:47.763Z,94774.41
2022-11-16T18:26:18.626Z,94761.25
2022-11-16T18:28:45.411Z,94766.13
2022-11-16T18:31:16.341Z,94765.91
2022-11-16T18:33:43.684Z,94763.50
2022-11-16T18:36:12.027Z,94761.66
2022-11-16T18:38:39.216Z,94756.03
2022-11-16T18:41:11.406Z,94753.59
2022-11-16T18:43:56.410Z,94749.97
2022-11-16T18:46:25.562Z,94757.03
2022-11-16T18:48:52.488Z,94745.69
2022-11-16T18:51:21.007Z,94745.09
2022-11-16T18:53:47.684Z,94733.00
2022-11-16T18:56:14.788Z,94736.63
2022-11-16T18:58:50.229Z,94730.19
2022-11-16T19:01:18.990Z,94716.47
2022-11-16T19:03:46.131Z,94717.91
2022-11-16T19:06:13.085Z,94714.06
2022-11-16T19:08:41.222Z,94708.00
2022-11-16T19:11:13.070Z,94701.34
2022-11-16T19:13:41.122Z,94706.19
2022-11-16T19:16:09.243Z,94696.13
2022-11-16T19:18:36.868Z,94687.25
2022-11-16T19:21:09.129Z,94686.63
2022-11-16T19:23:40.874Z,94683.81
2022-11-16T19:26:07.463Z,94676.75
2022-11-16T19:28:38.396Z,94673.16
2022-11-16T19:31:15.681Z,94674.13
2022-11-16T19:33:43.132Z,94664.03
2022-11-16T19:36:10.908Z,94659.00
2022-11-16T19:38:38.550Z,94673.31
2022-11-16T19:41:06.043Z,94671.13
2022-11-16T19:43:33.585Z,94672.50
2022-11-16T19:46:05.707Z,94675.53
2022-11-16T19:48:33.117Z,94667.50
2022-11-16T19:51:08.149Z,94676.56
2022-11-16T19:53:35.976Z,94683.78
2022-11-16T19:56:03.648Z,94679.13
2022-11-16T19:58:30.915Z,94683.78
2022-11-16T20:01:06.283Z,94678.53
2022-11-16T20:03:33.275Z,94682.78
2022-11-16T20:06:05.347Z,94673.66
2022-11-16T20:08:32.313Z,94673.09
2022-11-16T20:10:58.688Z,94683.38
2022-11-16T20:13:25.017Z,94686.81
2022-11-16T20:15:51.947Z,94684.97
2022-11-16T20:18:18.301Z,94694.00
2022-11-16T20:20:44.615Z,94695.66
2022-11-16T20:23:15.095Z,94693.63
2022-11-16T20:25:41.507Z,94696.69
2022-11-16T20:28:07.819Z,94701.50
2022-11-16T20:30:34.514Z,94712.78
2022-11-16T20:33:00.828Z,94702.91
2022-11-16T20:35:27.141Z,94717.63
2022-11-16T20:37:54.001Z,94718.84
2022-11-16T20:40:20.309Z,94704.13
2022-11-16T20:42:46.923Z,94708.16
2022-11-16T20:45:13.673Z,94703.53
2022-11-16T20:47:39.984Z,94690.84
2022-11-16T20:50:06.874Z,94692.28
2022-11-16T20:52:33.669Z,94691.47
2022-11-16T20:55:00.625Z,94686.00
2022-11-16T20:57:27.397Z,94664.81
2022-11-16T20:59:53.698Z,94656.53
2022-11-16T21:02:20.034Z,94638.59
2022-11-16T21:04:46.894Z,94635.31
2022-11-16T21:07:13.979Z,94638.16
2022-11-16T21:09:59.209Z,94637.56
2022-11-16T21:12:43.941Z,94631.47
2022-11-16T21:15:11.035Z,94631.00
2022-11-16T21:17:37.350Z,94626.22
2022-11-16T21:20:26.352Z,94629.44
2022-11-16T21:22:50.778Z,94622.78
2022-11-16T21:25:17.094Z,94629.84
2022-11-16T21:27:43.445Z,94641.31
2022-11-16T21:30:10.295Z,94640.72
2022-11-16T21:32:36.606Z,94637.91
2022-11-16T21:35:03.012Z,94640.31
2022-11-16T21:37:30.178Z,94646.75
2022-11-16T21:39:56.493Z,94650.00
2022-11-16T21:42:22.863Z,94643.38
2022-11-16T21:44:49.813Z,94651.03
2022-11-16T21:47:20.437Z,94640.56
2022-11-16T21:50:08.677Z,94629.31
2022-11-16T21:52:34.519Z,94635.97
2022-11-16T21:55:00.830Z,94632.16
2022-11-16T21:57:27.369Z,94627.94
2022-11-16T21:59:54.193Z,94626.31
2022-11-16T22:02:20.511Z,94611.38
2022-11-16T22:05:05.249Z,94619.44
2022-11-16T22:07:36.542Z,94614.00
2022-11-16T22:10:08.961Z,94623.63
2022-11-16T22:12:35.705Z,94622.44
2022-11-16T22:15:03.693Z,94618.00
2022-11-16T22:17:30.452Z,94616.41
2022-11-16T22:19:56.892Z,94619.66
2022-11-16T22:22:23.779Z,94633.16
2022-11-16T22:24:50.750Z,94627.75
2022-11-16T22:27:18.282Z,94632.56
2022-11-16T22:29:44.617Z,94632.56
2022-11-16T22:32:11.594Z,94617.28
2022-11-16T22:34:37.978Z,94618.69
2022-11-16T22:37:04.343Z,94610.41
2022-11-16T22:39:30.873Z,94612.84
2022-11-16T22:41:57.274Z,94611.22
2022-11-16T22:44:23.601Z,94610.41
2022-11-16T22:46:49.937Z,94589.88
2022-11-16T22:49:16.470Z,94583.22
2022-11-16T22:51:42.854Z,94587.22
2022-11-16T22:54:11.290Z,94581.00
2022-11-16T22:56:38.201Z,94581.00
2022-11-16T22:59:05.683Z,94576.19
2022-11-16T23:01:32.778Z,94582.19
2022-11-16T23:03:59.616Z,94596.72
2022-11-16T23:06:26.005Z,94598.94
2022-11-16T23:08:52.596Z,94597.13
2022-11-16T23:11:40.545Z,94600.75
2022-11-16T23:14:28.694Z,94593.09
2022-11-16T23:16:55.525Z,94590.44
2022-11-16T23:19:40.925Z,94591.47
2022-11-16T23:22:27.387Z,94589.44
2022-11-16T23:25:12.134Z,94595.50
2022-11-16T23:27:44.018Z,94580.59
2022-11-16T23:30:13.093Z,94577.38
2022-11-16T23:32:40.504Z,94575.97
2022-11-16T23:35:07.957Z,94576.97
2022-11-16T23:37:34.309Z,94576.38
2022-11-16T23:40:00.735Z,94582.19
2022-11-16T23:42:45.841Z,94581.19
2022-11-16T23:45:12.141Z,94574.13
2022-11-16T23:47:38.458Z,94573.69
2022-11-16T23:50:05.782Z,94557.94
2022-11-16T23:52:32.093Z,94562.41
2022-11-16T23:54:58.399Z,94561.56
2022-11-16T23:57:25.169Z,94552.34
2022-11-16T23:59:51.854Z,94557.22
